createdAt,value
2019-01-24T00:00:47.905Z,24.13
2019-01-24T00:03:20.427Z,24.43
2019-01-24T00:05:53.476Z,24.60
2019-01-24T00:08:25.440Z,25.87
2019-01-24T00:10:57.398Z,25.03
2019-01-24T00:13:29.124Z,24.13
2019-01-24T00:16:00.814Z,26.37
2019-01-24T00:18:32.910Z,23.33
2019-01-24T00:21:04.674Z,23.03
2019-01-24T00:23:36.376Z,24.03
2019-01-24T00:26:08.130Z,23.37
2019-01-24T00:28:40.092Z,24.20
2019-01-24T00:31:11.816Z,25.00
2019-01-24T00:33:43.577Z,23.90
2019-01-24T00:36:15.693Z,23.17
2019-01-24T00:38:47.543Z,24.57
2019-01-24T00:41:19.257Z,25.37
2019-01-24T00:43:51.022Z,25.50
2019-01-24T00:46:22.864Z,24.13
2019-01-24T00:48:54.555Z,25.30
2019-01-24T00:51:26.617Z,24.77
2019-01-24T00:53:58.304Z,23.47
2019-01-24T00:56:29.981Z,24.43
2019-01-24T00:59:01.691Z,23.73
2019-01-24T01:01:33.374Z,22.57
2019-01-24T01:04:05.083Z,23.77
2019-01-24T01:06:36.760Z,22.67
2019-01-24T01:09:08.657Z,24.60
2019-01-24T01:11:40.344Z,26.43
2019-01-24T01:14:12.035Z,24.13
2019-01-24T01:16:43.743Z,24.10
2019-01-24T01:19:15.427Z,24.63
2019-01-24T01:21:47.227Z,26.43
2019-01-24T01:24:18.919Z,24.47
2019-01-24T01:26:51.019Z,24.73
2019-01-24T01:29:22.779Z,25.70
2019-01-24T01:31:54.501Z,24.67
2019-01-24T01:34:26.162Z,24.73
2019-01-24T01:36:57.862Z,26.50
2019-01-24T01:39:29.552Z,24.97
2019-01-24T01:42:01.419Z,25.37
2019-01-24T01:44:33.442Z,25.83
2019-01-24T01:47:05.498Z,25.13
2019-01-24T01:49:37.177Z,25.33
2019-01-24T01:52:08.892Z,24.17
2019-01-24T01:54:40.579Z,26.37
2019-01-24T01:57:12.448Z,24.10
2019-01-24T01:59:44.139Z,24.73
2019-01-24T02:02:15.820Z,25.40
2019-01-24T02:04:47.511Z,24.10
2019-01-24T02:07:19.238Z,25.87
2019-01-24T02:09:50.914Z,23.87
2019-01-24T02:12:22.606Z,25.20
2019-01-24T02:14:54.322Z,24.60
2019-01-24T02:17:26.014Z,25.33
2019-01-24T02:19:57.696Z,25.70
2019-01-24T02:22:29.401Z,24.30
2019-01-24T02:25:01.088Z,24.00
2019-01-24T02:27:32.791Z,24.47
2019-01-24T02:30:23.851Z,23.93
2019-01-24T02:32:55.555Z,26.20
2019-01-24T02:35:27.313Z,23.30
2019-01-24T02:37:59.025Z,24.63
2019-01-24T02:40:30.743Z,25.43
2019-01-24T02:43:02.416Z,24.07
2019-01-24T02:45:34.151Z,24.37
2019-01-24T02:48:05.901Z,26.13
2019-01-24T02:50:37.630Z,24.87
2019-01-24T02:53:09.315Z,24.73
2019-01-24T02:55:41.041Z,24.47
2019-01-24T02:58:12.984Z,25.73
2019-01-24T03:00:44.689Z,26.43
2019-01-24T03:03:16.384Z,24.93
2019-01-24T03:05:48.103Z,26.43
2019-01-24T03:08:19.785Z,23.73
2019-01-24T03:10:51.504Z,24.80
2019-01-24T03:13:23.196Z,24.37
2019-01-24T03:15:54.897Z,26.03
2019-01-24T03:18:26.587Z,24.00
2019-01-24T03:20:58.278Z,26.43
2019-01-24T03:23:29.976Z,23.53
2019-01-24T03:26:01.671Z,24.53
2019-01-24T03:28:33.357Z,24.47
2019-01-24T03:31:05.049Z,23.53
2019-01-24T03:33:36.761Z,24.83
2019-01-24T03:36:08.455Z,25.10
2019-01-24T03:38:40.470Z,23.67
2019-01-24T03:41:12.153Z,25.20
2019-01-24T03:43:43.842Z,24.80
2019-01-24T03:46:15.534Z,25.03
2019-01-24T03:48:47.308Z,26.53
2019-01-24T03:51:18.983Z,22.80
2019-01-24T03:53:50.710Z,23.23
2019-01-24T03:56:22.768Z,23.43
2019-01-24T03:58:54.527Z,24.20
2019-01-24T04:01:26.218Z,24.57
2019-01-24T04:03:57.909Z,24.57
2019-01-24T04:06:29.610Z,26.10
2019-01-24T04:09:01.359Z,25.63
2019-01-24T04:11:33.137Z,25.47
2019-01-24T04:14:05.456Z,24.43
2019-01-24T04:16:37.164Z,23.80
2019-01-24T04:19:08.844Z,24.27
2019-01-24T04:21:40.538Z,24.47
2019-01-24T04:24:12.248Z,25.00
2019-01-24T04:26:43.927Z,25.50
2019-01-24T04:29:15.636Z,26.57
2019-01-24T04:31:47.320Z,26.17
2019-01-24T04:34:19.022Z,24.07
2019-01-24T04:36:50.714Z,26.20
2019-01-24T04:39:22.396Z,25.37
2019-01-24T04:41:54.858Z,25.70
2019-01-24T04:44:26.550Z,25.10
2019-01-24T04:46:58.627Z,26.27
2019-01-24T04:49:30.335Z,28.30
2019-01-24T04:52:02.034Z,27.50
2019-01-24T04:54:33.789Z,25.87
2019-01-24T04:57:05.503Z,27.23
2019-01-24T04:59:37.182Z,26.87
2019-01-24T05:02:08.880Z,27.77
2019-01-24T05:04:40.573Z,27.97
2019-01-24T05:07:12.249Z,26.30
2019-01-24T05:09:43.942Z,28.37
2019-01-24T05:12:15.620Z,26.90
2019-01-24T05:14:47.318Z,26.87
2019-01-24T05:17:19.012Z,26.87
2019-01-24T05:19:50.694Z,27.80
2019-01-24T05:22:22.818Z,27.77
2019-01-24T05:24:54.722Z,27.33
2019-01-24T05:27:26.416Z,26.10
2019-01-24T05:29:58.584Z,26.97
2019-01-24T05:32:30.306Z,27.80
2019-01-24T05:35:02.047Z,25.53
2019-01-24T05:37:33.796Z,27.97
2019-01-24T05:40:08.416Z,30.67
2019-01-24T05:42:40.112Z,32.43
2019-01-24T05:45:14.194Z,30.13
2019-01-24T05:47:46.261Z,29.87
2019-01-24T05:50:18.016Z,29.67
2019-01-24T05:52:49.712Z,28.30
2019-01-24T05:55:21.426Z,29.50
2019-01-24T05:57:53.120Z,29.80
2019-01-24T06:00:26.479Z,29.47
2019-01-24T06:02:58.239Z,29.30
2019-01-24T06:05:29.953Z,28.43
2019-01-24T06:08:01.985Z,30.83
2019-01-24T06:10:33.682Z,31.87
2019-01-24T06:13:05.370Z,30.00
2019-01-24T06:15:37.074Z,30.27
2019-01-24T06:18:08.766Z,30.53
2019-01-24T06:20:40.499Z,29.97
2019-01-24T06:23:12.223Z,29.17
2019-01-24T06:25:43.933Z,28.73
2019-01-24T06:28:15.618Z,29.80
2019-01-24T06:30:47.318Z,29.63
2019-01-24T06:33:18.998Z,29.33
2019-01-24T06:35:50.714Z,29.00
2019-01-24T06:38:22.393Z,29.00
2019-01-24T06:40:54.105Z,30.33
2019-01-24T06:43:25.787Z,31.83
2019-01-24T06:45:57.510Z,30.43
2019-01-24T06:48:29.191Z,30.83
2019-01-24T06:51:00.951Z,30.77
2019-01-24T06:53:32.638Z,29.73
2019-01-24T06:56:04.423Z,32.17
2019-01-24T06:58:36.433Z,28.23
2019-01-24T07:01:08.123Z,28.70
2019-01-24T07:03:39.812Z,28.27
2019-01-24T07:06:11.497Z,27.73
2019-01-24T07:08:43.269Z,26.13
2019-01-24T07:11:14.968Z,27.60
2019-01-24T07:13:46.770Z,27.60
2019-01-24T07:16:18.639Z,27.83
2019-01-24T07:18:50.385Z,26.40
2019-01-24T07:21:22.101Z,24.93
2019-01-24T07:23:54.121Z,26.03
2019-01-24T07:26:25.837Z,26.63
2019-01-24T07:28:57.533Z,26.47
2019-01-24T07:31:29.609Z,29.10
2019-01-24T07:34:01.297Z,28.33
2019-01-24T07:36:33.013Z,28.00
2019-01-24T07:39:07.004Z,27.27
2019-01-24T07:41:38.698Z,26.93
2019-01-24T07:44:10.397Z,27.17
2019-01-24T07:46:42.113Z,26.17
2019-01-24T07:49:13.793Z,27.23
2019-01-24T07:51:45.515Z,26.13
2019-01-24T07:54:17.279Z,27.23
2019-01-24T07:56:49.001Z,25.90
2019-01-24T07:59:20.677Z,27.30
2019-01-24T08:01:52.399Z,26.20
2019-01-24T08:04:24.117Z,25.50
2019-01-24T08:06:55.876Z,26.43
2019-01-24T08:09:27.574Z,25.80
2019-01-24T08:11:59.267Z,25.07
2019-01-24T08:14:30.959Z,25.30
2019-01-24T08:17:02.651Z,25.93
2019-01-24T08:19:34.400Z,26.03
2019-01-24T08:22:06.425Z,26.20
2019-01-24T08:24:38.120Z,26.17
2019-01-24T08:27:09.817Z,25.70
2019-01-24T08:29:41.499Z,25.33
2019-01-24T08:32:13.558Z,25.27
2019-01-24T08:34:45.339Z,25.40
2019-01-24T08:37:17.033Z,25.47
2019-01-24T08:39:48.813Z,25.20
2019-01-24T08:42:20.510Z,24.57
2019-01-24T08:44:52.201Z,26.90
2019-01-24T08:47:24.228Z,25.43
2019-01-24T08:49:56.189Z,24.77
2019-01-24T08:52:27.901Z,26.27
2019-01-24T08:54:59.675Z,25.10
2019-01-24T08:57:31.563Z,27.50
2019-01-24T09:00:05.263Z,26.10
2019-01-24T09:02:36.976Z,25.00
2019-01-24T09:05:09.011Z,24.93
2019-01-24T09:07:40.707Z,25.77
2019-01-24T09:10:28.733Z,25.10
2019-01-24T09:13:00.430Z,23.60
2019-01-24T09:15:32.782Z,23.67
2019-01-24T09:18:05.974Z,26.87
2019-01-24T09:20:37.741Z,25.27
2019-01-24T09:23:09.463Z,24.03
2019-01-24T09:25:41.156Z,24.07
2019-01-24T09:28:14.955Z,25.77
2019-01-24T09:30:46.288Z,24.23
2019-01-24T09:33:18.114Z,25.30
2019-01-24T09:35:49.804Z,24.67
2019-01-24T09:38:21.818Z,23.63
2019-01-24T09:40:53.532Z,23.93
2019-01-24T09:43:25.502Z,25.33
2019-01-24T09:45:57.378Z,23.37
2019-01-24T09:48:29.285Z,24.03
2019-01-24T09:51:01.355Z,26.10
2019-01-24T09:53:33.092Z,24.07
2019-01-24T09:56:04.825Z,25.77
2019-01-24T09:58:39.305Z,24.77
2019-01-24T10:01:11.099Z,23.17
2019-01-24T10:03:42.926Z,23.40
2019-01-24T10:06:14.887Z,25.13
2019-01-24T10:08:46.725Z,23.77
2019-01-24T10:11:23.465Z,25.13
2019-01-24T10:13:52.085Z,25.63
2019-01-24T10:16:23.767Z,25.63
2019-01-24T10:18:56.182Z,26.50
2019-01-24T10:21:27.980Z,27.13
2019-01-24T10:23:59.983Z,26.73
2019-01-24T10:26:31.817Z,26.17
2019-01-24T10:29:03.525Z,26.87
2019-01-24T10:31:40.078Z,27.67
2019-01-24T10:34:13.226Z,26.00
2019-01-24T10:36:44.928Z,25.73
2019-01-24T10:39:16.823Z,27.67
2019-01-24T10:41:48.572Z,24.73
2019-01-24T10:44:20.607Z,24.37
2019-01-24T10:46:52.596Z,23.80
2019-01-24T10:49:24.550Z,27.13
2019-01-24T10:51:56.686Z,24.87
2019-01-24T10:54:28.456Z,26.77
2019-01-24T10:57:00.267Z,25.90
2019-01-24T10:59:32.034Z,23.73
2019-01-24T11:02:03.752Z,24.67
2019-01-24T11:04:35.477Z,23.23
2019-01-24T11:07:07.379Z,25.97
2019-01-24T11:09:39.098Z,23.33
2019-01-24T11:12:10.822Z,22.37
2019-01-24T11:14:42.519Z,23.43
2019-01-24T11:17:14.288Z,24.07
2019-01-24T11:19:46.528Z,24.43
2019-01-24T11:22:18.498Z,26.27
2019-01-24T11:24:50.289Z,25.97
2019-01-24T11:27:22.109Z,24.87
2019-01-24T11:29:54.229Z,23.43
2019-01-24T11:32:26.867Z,25.30
2019-01-24T11:34:58.704Z,25.37
2019-01-24T11:37:30.390Z,24.77
2019-01-24T11:40:02.075Z,24.13
2019-01-24T11:42:33.909Z,27.10
2019-01-24T11:45:10.156Z,25.73
2019-01-24T11:47:42.338Z,25.77
2019-01-24T11:50:16.843Z,25.57
2019-01-24T11:52:48.801Z,24.47
2019-01-24T11:55:22.293Z,23.63
2019-01-24T11:57:54.513Z,23.97
2019-01-24T12:00:34.241Z,23.77
2019-01-24T12:03:07.019Z,26.73
2019-01-24T12:05:51.087Z,22.70
2019-01-24T12:08:22.891Z,23.80
2019-01-24T12:10:55.479Z,21.53
2019-01-24T12:13:27.423Z,20.50
2019-01-24T12:15:59.359Z,22.57
2019-01-24T12:18:31.175Z,23.30
2019-01-24T12:21:02.941Z,25.37
2019-01-24T12:23:34.681Z,26.67
2019-01-24T12:26:06.442Z,24.63
2019-01-24T12:28:38.166Z,25.43
2019-01-24T12:31:09.855Z,24.67
2019-01-24T12:33:41.833Z,23.43
2019-01-24T12:36:13.520Z,22.70
2019-01-24T12:38:45.475Z,22.53
2019-01-24T12:41:17.161Z,24.53
2019-01-24T12:43:48.873Z,25.70
2019-01-24T12:46:20.560Z,24.53
2019-01-24T12:48:52.297Z,23.33
2019-01-24T12:51:24.262Z,27.63
2019-01-24T12:53:55.996Z,25.13
2019-01-24T12:56:27.682Z,25.03
2019-01-24T12:58:59.462Z,25.00
2019-01-24T13:01:31.224Z,23.20
2019-01-24T13:04:02.937Z,24.17
2019-01-24T13:06:34.635Z,26.70
2019-01-24T13:09:07.745Z,23.27
2019-01-24T13:11:39.446Z,26.50
2019-01-24T13:14:11.213Z,24.73
2019-01-24T13:16:43.275Z,25.73
2019-01-24T13:19:14.956Z,25.40
2019-01-24T13:21:46.828Z,27.03
2019-01-24T13:24:18.603Z,26.37
2019-01-24T13:26:50.643Z,27.43
2019-01-24T13:29:22.353Z,26.77
2019-01-24T13:31:54.039Z,27.47
2019-01-24T13:34:25.750Z,26.53
2019-01-24T13:36:57.423Z,27.83
2019-01-24T13:39:29.174Z,28.53
2019-01-24T13:42:00.946Z,28.60
2019-01-24T13:44:32.652Z,29.63
2019-01-24T13:47:04.335Z,29.47
2019-01-24T13:49:36.088Z,31.27
2019-01-24T13:52:08.204Z,30.90
2019-01-24T13:54:40.151Z,29.47
2019-01-24T13:57:11.846Z,29.60
2019-01-24T13:59:43.670Z,30.70
2019-01-24T14:02:27.006Z,31.57
2019-01-24T14:04:58.708Z,32.70
2019-01-24T14:07:33.035Z,31.50
2019-01-24T14:10:06.325Z,30.80
2019-01-24T14:12:38.004Z,33.63
2019-01-24T14:15:18.588Z,29.50
2019-01-24T14:17:50.273Z,32.30
2019-01-24T14:20:22.752Z,30.47
2019-01-24T14:22:55.350Z,32.87
2019-01-24T14:25:27.038Z,31.20
2019-01-24T14:27:59.743Z,30.70
2019-01-24T14:30:31.538Z,31.57
2019-01-24T14:33:03.214Z,31.47
2019-01-24T14:35:35.379Z,30.27
2019-01-24T14:38:08.673Z,30.20
2019-01-24T14:40:40.350Z,33.20
2019-01-24T14:43:12.038Z,31.27
2019-01-24T14:45:43.748Z,33.23
2019-01-24T14:48:15.455Z,31.80
2019-01-24T14:50:47.161Z,31.47
2019-01-24T14:53:18.844Z,30.23
2019-01-24T14:55:50.798Z,31.57
2019-01-24T14:58:22.680Z,31.97
2019-01-24T15:00:59.378Z,32.37
2019-01-24T15:03:31.103Z,32.23
2019-01-24T15:06:04.975Z,30.90
2019-01-24T15:08:37.155Z,33.07
2019-01-24T15:11:09.395Z,31.13
2019-01-24T15:13:41.676Z,34.00
2019-01-24T15:16:13.385Z,32.80
2019-01-24T15:18:45.063Z,33.13
2019-01-24T15:21:16.742Z,34.10
2019-01-24T15:23:48.458Z,33.07
2019-01-24T15:26:20.511Z,33.93
2019-01-24T15:28:52.530Z,36.37
2019-01-24T15:31:24.655Z,33.37
2019-01-24T15:33:56.378Z,34.70
2019-01-24T15:36:28.068Z,33.80
2019-01-24T15:38:59.852Z,33.33
2019-01-24T15:41:31.649Z,35.37
2019-01-24T15:44:03.593Z,31.20
2019-01-24T15:46:35.348Z,33.43
2019-01-24T15:49:07.032Z,34.73
2019-01-24T15:51:38.765Z,34.77
2019-01-24T15:54:10.462Z,33.03
2019-01-24T15:56:42.179Z,34.93
2019-01-24T15:59:13.943Z,33.63
2019-01-24T16:01:45.635Z,34.67
2019-01-24T16:04:19.914Z,33.73
2019-01-24T16:06:51.083Z,34.17
2019-01-24T16:09:23.071Z,35.77
2019-01-24T16:11:54.797Z,34.90
2019-01-24T16:14:26.480Z,35.83
2019-01-24T16:16:58.826Z,36.17
2019-01-24T16:19:31.093Z,35.53
2019-01-24T16:22:03.589Z,36.63
2019-01-24T16:24:35.406Z,35.77
2019-01-24T16:27:07.621Z,33.27
2019-01-24T16:29:39.342Z,34.20
2019-01-24T16:32:11.028Z,34.30
2019-01-24T16:34:42.754Z,31.97
2019-01-24T16:37:15.163Z,34.90
2019-01-24T16:39:46.860Z,34.77
2019-01-24T16:42:18.674Z,34.83
2019-01-24T16:44:50.690Z,34.27
2019-01-24T16:47:22.399Z,33.87
2019-01-24T16:49:54.086Z,33.03
2019-01-24T16:52:25.780Z,34.17
2019-01-24T16:54:57.969Z,32.43
2019-01-24T16:57:29.935Z,33.37
2019-01-24T17:00:01.668Z,34.47
2019-01-24T17:02:33.761Z,32.47
2019-01-24T17:05:07.764Z,33.50
2019-01-24T17:07:39.847Z,34.97
2019-01-24T17:10:23.950Z,37.10
2019-01-24T17:12:56.469Z,34.03
2019-01-24T17:15:28.225Z,35.40
2019-01-24T17:18:00.597Z,37.00
2019-01-24T17:20:32.922Z,35.13
2019-01-24T17:23:05.506Z,36.33
2019-01-24T17:25:37.505Z,34.37
2019-01-24T17:28:09.236Z,35.53
2019-01-24T17:30:44.060Z,34.60
2019-01-24T17:33:16.068Z,34.00
2019-01-24T17:35:48.391Z,38.30
2019-01-24T17:38:23.899Z,36.83
2019-01-24T17:40:53.641Z,35.03
2019-01-24T17:43:25.415Z,32.83
2019-01-24T17:45:57.092Z,33.17
2019-01-24T17:48:28.787Z,33.37
2019-01-24T17:51:00.564Z,32.00
2019-01-24T17:53:32.613Z,32.00
2019-01-24T17:56:04.641Z,32.17
2019-01-24T17:58:36.313Z,30.00
2019-01-24T18:01:08.051Z,30.60
2019-01-24T18:03:39.748Z,27.77
2019-01-24T18:06:11.492Z,24.97
2019-01-24T18:08:43.355Z,25.47
2019-01-24T18:11:15.100Z,23.27
2019-01-24T18:13:46.800Z,25.27
2019-01-24T18:16:18.756Z,28.53
2019-01-24T18:18:50.427Z,29.17
2019-01-24T18:21:22.293Z,30.80
2019-01-24T18:23:54.298Z,28.87
2019-01-24T18:26:25.998Z,32.70
2019-01-24T18:28:58.208Z,27.20
2019-01-24T18:31:29.908Z,27.73
2019-01-24T18:34:01.659Z,24.37
2019-01-24T18:36:33.439Z,33.93
2019-01-24T18:39:08.483Z,32.13
2019-01-24T18:41:40.176Z,36.07
2019-01-24T18:44:11.858Z,34.17
2019-01-24T18:46:43.906Z,33.97
2019-01-24T18:49:15.658Z,32.77
2019-01-24T18:51:47.370Z,35.47
2019-01-24T18:54:19.060Z,34.30
2019-01-24T18:56:51.065Z,34.87
2019-01-24T18:59:23.037Z,34.93
2019-01-24T19:01:54.955Z,35.77
2019-01-24T19:04:27.686Z,34.40
2019-01-24T19:07:00.019Z,32.13
2019-01-24T19:09:32.064Z,32.93
2019-01-24T19:12:04.179Z,33.97
2019-01-24T19:14:35.938Z,32.73
2019-01-24T19:17:07.616Z,32.37
2019-01-24T19:19:42.182Z,33.67
2019-01-24T19:22:13.901Z,31.63
2019-01-24T19:24:45.596Z,34.07
2019-01-24T19:27:17.348Z,31.90
2019-01-24T19:29:49.043Z,32.17
2019-01-24T19:32:20.758Z,31.03
2019-01-24T19:34:52.698Z,32.37
2019-01-24T19:37:24.374Z,32.57
2019-01-24T19:39:56.078Z,35.23
2019-01-24T19:42:27.772Z,33.67
2019-01-24T19:44:59.515Z,32.63
2019-01-24T19:47:31.217Z,30.73
2019-01-24T19:50:02.959Z,31.43
2019-01-24T19:52:34.673Z,31.93
2019-01-24T19:55:10.513Z,30.93
2019-01-24T19:57:42.191Z,30.60
2019-01-24T20:00:25.318Z,30.97
2019-01-24T20:02:57.485Z,32.37
2019-01-24T20:05:29.160Z,28.03
2019-01-24T20:08:00.854Z,30.80
2019-01-24T20:10:32.602Z,28.27
2019-01-24T20:13:05.466Z,28.00
2019-01-24T20:15:37.223Z,27.83
2019-01-24T20:18:08.933Z,26.37
2019-01-24T20:20:40.660Z,27.67
2019-01-24T20:23:12.378Z,28.17
2019-01-24T20:25:44.160Z,25.83
2019-01-24T20:28:15.863Z,27.87
2019-01-24T20:30:49.827Z,28.13
2019-01-24T20:33:22.475Z,30.00
2019-01-24T20:35:54.934Z,29.00
2019-01-24T20:38:26.778Z,28.93
2019-01-24T20:40:58.804Z,28.73
2019-01-24T20:43:35.356Z,28.13
2019-01-24T20:46:04.453Z,27.90
2019-01-24T20:48:36.134Z,29.80
2019-01-24T20:51:07.822Z,29.60
2019-01-24T20:53:40.529Z,31.60
2019-01-24T20:56:12.994Z,31.23
2019-01-24T20:58:44.797Z,32.83
2019-01-24T21:01:16.519Z,31.83
2019-01-24T21:03:55.108Z,31.57
2019-01-24T21:06:21.673Z,32.40
2019-01-24T21:08:53.415Z,32.07
2019-01-24T21:11:25.406Z,30.87
2019-01-24T21:13:57.122Z,32.50
2019-01-24T21:16:28.806Z,31.20
2019-01-24T21:19:00.524Z,32.60
2019-01-24T21:21:32.415Z,32.00
2019-01-24T21:24:04.488Z,33.13
2019-01-24T21:26:36.357Z,29.90
2019-01-24T21:29:08.378Z,29.67
2019-01-24T21:31:40.344Z,29.20
2019-01-24T21:34:12.128Z,30.83
2019-01-24T21:36:43.896Z,30.47
2019-01-24T21:39:21.984Z,31.07
2019-01-24T21:41:49.004Z,31.10
2019-01-24T21:44:20.718Z,31.27
2019-01-24T21:46:52.571Z,30.03
2019-01-24T21:49:24.562Z,29.93
2019-01-24T21:51:56.236Z,30.03
2019-01-24T21:54:27.947Z,28.37
2019-01-24T21:56:59.642Z,29.20
2019-01-24T21:59:31.356Z,28.20
2019-01-24T22:02:03.096Z,30.50
2019-01-24T22:04:34.799Z,28.80
2019-01-24T22:07:06.793Z,30.00
2019-01-24T22:09:38.504Z,30.03
2019-01-24T22:12:10.249Z,30.53
2019-01-24T22:14:41.934Z,29.37
2019-01-24T22:17:13.635Z,27.70
2019-01-24T22:19:45.418Z,29.90
2019-01-24T22:22:17.098Z,28.77
2019-01-24T22:24:48.838Z,27.93
2019-01-24T22:27:20.590Z,28.80
2019-01-24T22:29:52.296Z,29.17
2019-01-24T22:32:24.017Z,28.57
2019-01-24T22:34:55.791Z,28.13
2019-01-24T22:37:27.513Z,29.67
2019-01-24T22:39:59.198Z,28.90
2019-01-24T22:42:30.989Z,29.83
2019-01-24T22:45:02.680Z,29.90
2019-01-24T22:47:34.365Z,31.57
2019-01-24T22:50:11.076Z,30.30
2019-01-24T22:52:43.057Z,28.47
2019-01-24T22:55:14.817Z,29.60
2019-01-24T22:57:46.512Z,31.27
2019-01-24T23:00:48.854Z,29.57
2019-01-24T23:03:25.828Z,30.43
2019-01-24T23:05:57.575Z,31.37
2019-01-24T23:08:29.560Z,31.57
2019-01-24T23:11:01.653Z,31.20
2019-01-24T23:13:33.374Z,32.83
2019-01-24T23:16:05.378Z,33.50
2019-01-24T23:18:37.116Z,31.33
2019-01-24T23:21:08.832Z,32.87
2019-01-24T23:23:40.554Z,31.43
2019-01-24T23:26:12.265Z,32.57
2019-01-24T23:28:43.984Z,32.10
2019-01-24T23:31:15.702Z,30.97
2019-01-24T23:33:47.423Z,33.00
2019-01-24T23:36:19.139Z,32.63
2019-01-24T23:38:50.931Z,32.30
2019-01-24T23:41:22.646Z,32.00
2019-01-24T23:43:54.385Z,31.33
2019-01-24T23:46:26.092Z,32.40
2019-01-24T23:48:57.809Z,29.07
2019-01-24T23:51:29.613Z,31.47
2019-01-24T23:54:01.435Z,31.83
2019-01-24T23:56:33.175Z,31.50
2019-01-24T23:59:05.145Z,30.50
